Time;durP1;ratioP1;P1;durP2;ratioP2;P2;SDS_P1;SDS_P2;PMS_P1;PMS_P2;Temp;Humidity;BMP_temperature;BMP_pressure;BME280_temperature;BME280_humidity;BME280_pressure;Samples;Min_cycle;Max_cycle;Signal;HPM_P1;HPM_P2
2022/10/01 00:02:23;;;;;;;15.45;5.88;;;;;;;15.98;96.56;100817.19;10376932;28;20103;-69
2022/10/01 00:07:25;;;;;;;11.75;4.97;;;;;;;15.98;97.67;100827.91;10376652;28;20038;-69
2022/10/01 00:12:25;;;;;;;10.55;5.00;;;;;;;15.92;98.49;100828.69;10377051;28;20050;-69
2022/10/01 00:17:26;;;;;;;13.05;4.85;;;;;;;15.91;98.71;100822.50;10376807;28;20045;-69
2022/10/01 00:22:31;;;;;;;8.35;4.88;;;;;;;15.89;99.41;100821.03;10376646;28;20064;-69
2022/10/01 00:27:32;;;;;;;13.77;5.78;;;;;;;15.79;98.91;100832.03;10377088;28;20453;-69
2022/10/01 00:32:33;;;;;;;12.30;5.40;;;;;;;15.29;99.03;100750.75;10376197;28;20042;-69
2022/10/01 00:37:34;;;;;;;13.45;5.97;;;;;;;15.70;99.22;100841.22;10373133;28;20054;-69
2022/10/01 00:42:34;;;;;;;11.75;6.75;;;;;;;15.66;99.49;100846.09;10375703;28;20490;-69
2022/10/01 00:47:51;;;;;;;16.70;8.80;;;;;;;15.23;100.00;100779.09;10391884;28;20044;-69
2022/10/01 00:52:59;;;;;;;16.27;7.35;;;;;;;15.56;99.85;100847.44;10390494;28;20062;-69
2022/10/01 00:58:00;;;;;;;15.27;8.05;;;;;;;15.57;99.16;100859.78;10374649;28;20042;-69
2022/10/01 01:03:01;;;;;;;30.65;8.18;;;;;;;15.26;98.91;100831.41;10374966;28;20042;-69
2022/10/01 01:08:02;;;;;;;17.73;6.88;;;;;;;15.24;99.40;100855.69;10374458;28;20041;-69
2022/10/01 01:13:22;;;;;;;19.25;7.15;;;;;;;15.37;100.00;100879.09;10374657;28;20091;-70
2022/10/01 01:18:22;;;;;;;13.43;7.00;;;;;;;15.36;100.00;100890.00;10374651;28;20034;-69
2022/10/01 01:23:43;;;;;;;17.10;6.90;;;;;;;15.39;100.00;100887.78;10374966;28;20132;-69
2022/10/01 01:28:52;;;;;;;11.95;6.50;;;;;;;15.25;100.00;100892.13;10374043;28;20044;-69
2022/10/01 01:33:56;;;;;;;14.85;6.00;;;;;;;15.18;100.00;100885.88;10374248;28;20042;-69
2022/10/01 01:39:03;;;;;;;12.10;7.03;;;;;;;14.92;100.00;100850.69;10374248;28;20045;-69
2022/10/01 01:44:07;;;;;;;14.52;6.70;;;;;;;15.02;100.00;100878.03;10373089;28;20065;-69
2022/10/01 01:49:08;;;;;;;22.40;10.77;;;;;;;14.82;100.00;100854.47;10373201;28;20048;-69
2022/10/01 01:54:09;;;;;;;49.80;17.63;;;;;;;14.97;100.00;100893.78;10373479;28;20089;-69
2022/10/01 01:59:11;;;;;;;47.97;20.30;;;;;;;14.96;100.00;100900.16;10372712;28;20140;-69
2022/10/01 02:04:26;;;;;;;28.67;12.30;;;;;;;14.98;100.00;100911.50;10372957;28;20117;-69
2022/10/01 02:10:09;;;;;;;21.13;8.02;;;;;;;14.92;100.00;100917.56;10372775;28;20056;-69
2022/10/01 02:15:43;;;;;;;47.77;8.47;;;;;;;14.44;100.00;100850.97;10371880;28;20049;-69
2022/10/01 02:21:19;;;;;;;18.65;7.72;;;;;;;14.80;100.00;100927.88;10372594;28;20128;-69
2022/10/01 02:26:22;;;;;;;16.08;7.25;;;;;;;14.63;100.00;100918.34;10371281;28;20096;-69
2022/10/01 02:31:23;;;;;;;57.25;9.77;;;;;;;13.96;100.00;100812.97;10372412;28;20038;-69
2022/10/01 02:36:25;;;;;;;54.25;8.15;;;;;;;14.61;100.00;100910.50;10373289;28;20490;-69
2022/10/01 02:41:34;;;;;;;50.17;7.97;;;;;;;14.71;100.00;100918.28;10372165;28;20041;-71
2022/10/01 02:46:37;;;;;;;31.90;6.65;;;;;;;14.45;100.00;100863.34;10372247;28;20045;-69
2022/10/01 02:51:59;;;;;;;34.95;7.30;;;;;;;14.88;100.00;100910.94;10370458;28;20077;-69
2022/10/01 03:02:21;;;;;;;17.17;6.28;;;;;;;14.87;100.00;100891.41;10378739;28;20046;-69
2022/10/01 03:07:23;;;;;;;20.58;7.03;;;;;;;14.85;100.00;100898.75;10379058;28;20041;-69
2022/10/01 03:12:24;;;;;;;23.60;8.90;;;;;;;14.91;100.00;100922.09;10394092;28;20557;-69
2022/10/01 03:17:25;;;;;;;17.00;8.13;;;;;;;14.91;100.00;100927.44;10378533;28;20150;-69
2022/10/01 03:22:26;;;;;;;15.68;8.82;;;;;;;14.93;100.00;100912.06;10378660;28;20072;-69
2022/10/01 03:27:27;;;;;;;48.90;10.48;;;;;;;14.73;100.00;100865.44;10378812;28;20040;-69
2022/10/01 03:32:28;;;;;;;25.60;8.63;;;;;;;15.23;100.00;100953.06;10378675;28;20071;-69
2022/10/01 03:37:29;;;;;;;33.63;9.70;;;;;;;15.13;100.00;100931.06;10377981;28;20053;-69
2022/10/01 03:42:29;;;;;;;19.98;7.00;;;;;;;15.17;100.00;100958.31;10377661;28;20410;-70
2022/10/01 03:47:30;;;;;;;26.63;7.47;;;;;;;14.89;100.00;100908.06;10378867;28;20053;-69
2022/10/01 03:52:31;;;;;;;34.60;7.93;;;;;;;15.49;100.00;100981.22;10378162;28;20119;-69
2022/10/01 03:57:32;;;;;;;28.70;9.18;;;;;;;15.70;100.00;100975.13;10377534;28;20045;-69
2022/10/01 04:02:32;;;;;;;32.90;8.77;;;;;;;15.75;100.00;100967.38;10376253;28;20077;-69
2022/10/01 04:07:33;;;;;;;20.98;7.50;;;;;;;16.09;100.00;100992.72;10403342;28;20037;-69
2022/10/01 04:12:34;;;;;;;16.65;8.02;;;;;;;16.27;100.00;100995.81;10417874;28;20087;-69
2022/10/01 04:17:35;;;;;;;37.72;9.52;;;;;;;16.47;100.00;101012.13;10379637;28;20046;-69
2022/10/01 04:22:40;;;;;;;20.13;8.35;;;;;;;16.64;100.00;100996.63;10376731;28;20116;-69
2022/10/01 04:27:56;;;;;;;14.95;7.25;;;;;;;16.53;99.96;100946.16;10401205;28;20037;-69
2022/10/01 04:32:57;;;;;;;18.38;7.00;;;;;;;17.00;98.32;100971.56;10408247;28;20049;-70
2022/10/01 04:38:04;;;;;;;18.40;6.57;;;;;;;17.50;97.15;101004.53;10393938;28;20112;-69
2022/10/01 04:43:08;;;;;;;21.42;6.43;;;;;;;17.62;94.81;101002.97;10378235;28;20045;-69
2022/10/01 04:48:09;;;;;;;19.05;6.45;;;;;;;17.32;93.90;100924.50;10392263;28;20073;-69
2022/10/01 04:53:10;;;;;;;12.55;6.38;;;;;;;17.58;91.65;100880.81;10375775;28;20209;-69
2022/10/01 04:58:11;;;;;;;13.45;6.20;;;;;;;18.13;89.00;100918.44;10398799;28;20141;-69
2022/10/01 05:03:12;;;;;;;10.55;5.88;;;;;;;19.16;87.09;101011.25;10416013;28;20055;-69
2022/10/01 05:08:13;;;;;;;15.98;5.70;;;;;;;19.27;84.82;100957.81;10411974;28;20052;-69
2022/10/01 05:13:14;;;;;;;8.93;5.10;;;;;;;19.94;82.83;100990.78;10372848;28;20053;-69
2022/10/01 05:18:14;;;;;;;18.08;6.25;;;;;;;20.29;81.77;100993.94;10374296;28;20037;-71
2022/10/01 05:23:15;;;;;;;12.57;5.45;;;;;;;20.74;79.75;101002.00;10372998;28;20531;-70
2022/10/01 05:28:16;;;;;;;20.20;5.80;;;;;;;20.78;78.90;100960.00;10391772;28;20038;-69
2022/10/01 05:33:17;;;;;;;15.68;5.15;;;;;;;20.48;77.13;100885.03;10414669;28;20058;-71
2022/10/01 05:38:18;;;;;;;14.32;5.35;;;;;;;21.61;75.61;101012.88;10414533;28;20041;-70
2022/10/01 05:43:19;;;;;;;14.57;5.10;;;;;;;21.59;74.68;101004.16;10407812;28;20119;-70
2022/10/01 05:48:20;;;;;;;16.25;5.60;;;;;;;21.82;74.05;101007.00;10386443;28;20073;-70
2022/10/01 05:53:22;;;;;;;14.05;5.18;;;;;;;22.14;72.74;101005.97;10372805;28;20065;-70
2022/10/01 05:58:23;;;;;;;12.70;5.00;;;;;;;22.33;71.85;101000.34;10372927;28;20052;-70
2022/10/01 06:03:27;;;;;;;8.70;4.57;;;;;;;22.42;71.02;100989.19;10409028;28;20120;-70
2022/10/01 06:08:28;;;;;;;12.73;4.90;;;;;;;21.99;69.98;100879.25;10413082;28;20045;-70
2022/10/01 06:13:29;;;;;;;13.82;4.50;;;;;;;23.11;68.98;101001.22;10413521;28;20052;-69
2022/10/01 06:18:30;;;;;;;11.50;4.40;;;;;;;23.42;67.88;100977.53;10388574;28;20042;-70
2022/10/01 06:23:31;;;;;;;12.05;4.10;;;;;;;23.74;66.93;100983.41;10379994;28;20494;-71
2022/10/01 06:28:32;;;;;;;15.95;4.90;;;;;;;24.23;65.44;100983.00;10373092;28;20132;-70
2022/10/01 06:33:33;;;;;;;12.70;3.95;;;;;;;24.20;64.10;100900.16;10373154;28;20045;-70
2022/10/01 06:38:33;;;;;;;15.90;3.33;;;;;;;25.02;62.04;100974.88;10389677;28;20037;-69
2022/10/01 06:43:34;;;;;;;14.73;3.85;;;;;;;25.32;61.14;100971.78;10383397;28;20042;-69
2022/10/01 06:48:35;;;;;;;5.82;3.03;;;;;;;25.57;59.66;100975.94;10401439;28;20110;-69
2022/10/01 06:53:36;;;;;;;10.77;3.70;;;;;;;25.86;59.12;100985.56;10407623;28;20148;-69
2022/10/01 06:58:37;;;;;;;15.07;3.70;;;;;;;25.98;57.88;100960.13;10379338;28;20042;-69
2022/10/01 07:03:37;;;;;;;5.70;2.60;;;;;;;26.25;56.13;100958.22;10388787;28;20045;-69
2022/10/01 07:08:39;;;;;;;16.75;3.28;;;;;;;26.60;55.37;100967.84;10419960;28;20044;-69
2022/10/01 07:13:40;;;;;;;6.07;2.72;;;;;;;26.46;53.81;100907.47;10419761;28;20075;-69
2022/10/01 07:18:40;;;;;;;10.85;3.00;;;;;;;26.98;53.25;100966.78;10418319;28;20037;-69
2022/10/01 07:23:42;;;;;;;7.93;2.70;;;;;;;27.08;53.69;100960.56;10420013;28;20037;-69
2022/10/01 07:28:43;;;;;;;7.45;2.67;;;;;;;27.21;52.19;100956.56;10419559;28;20052;-69
2022/10/01 07:33:44;;;;;;;16.70;2.78;;;;;;;26.62;51.86;100821.25;10419348;28;20044;-70
2022/10/01 07:38:47;;;;;;;6.68;2.72;;;;;;;26.87;50.40;100828.75;10418039;28;20557;-70
2022/10/01 07:43:48;;;;;;;6.72;2.20;;;;;;;27.81;49.96;100948.97;10407295;28;20042;-69
2022/10/01 07:48:49;;;;;;;6.55;2.40;;;;;;;27.49;49.62;100871.59;10417939;28;20042;-70
2022/10/01 07:53:50;;;;;;;58.00;4.78;;;;;;;28.30;50.11;100943.03;10419590;28;20068;-70
2022/10/01 07:58:55;;;;;;;15.77;2.70;;;;;;;28.44;48.14;100944.19;10418429;28;20049;-70
2022/10/01 08:03:56;;;;;;;16.30;2.95;;;;;;;28.47;48.67;100927.25;10395677;28;20128;-70
2022/10/01 08:08:57;;;;;;;14.63;2.97;;;;;;;28.63;47.02;100945.28;10377301;28;20409;-70
2022/10/01 08:13:57;;;;;;;7.35;2.92;;;;;;;28.63;46.76;100947.22;10376927;28;20418;-69
2022/10/01 08:18:59;;;;;;;11.05;2.90;;;;;;;28.59;45.97;100948.84;10376156;28;20045;-70
2022/10/01 08:24:01;;;;;;;9.68;2.30;;;;;;;28.56;45.91;100903.72;10376681;28;20041;-70
2022/10/01 08:29:02;;;;;;;11.30;2.50;;;;;;;28.87;45.58;100936.53;10377046;28;20045;-70
2022/10/01 08:34:03;;;;;;;5.50;2.15;;;;;;;28.99;45.12;100920.63;10376495;28;20136;-70
2022/10/01 08:39:04;;;;;;;10.15;2.63;;;;;;;29.06;43.82;100931.31;10375792;28;20128;-69
2022/10/01 08:44:06;;;;;;;4.90;2.30;;;;;;;28.95;43.44;100926.91;10375149;28;20088;-70
2022/10/01 08:49:07;;;;;;;12.20;2.13;;;;;;;28.72;43.41;100857.22;10374783;28;20050;-70
2022/10/01 08:54:22;;;;;;;19.13;3.17;;;;;;;29.23;41.64;100885.31;10390325;28;20060;-70
2022/10/01 08:59:26;;;;;;;17.77;3.08;;;;;;;29.60;42.64;100921.53;10380023;28;20502;-69
2022/10/01 09:04:28;;;;;;;7.53;2.33;;;;;;;29.53;41.51;100910.91;10375606;28;20042;-69
2022/10/01 09:09:46;;;;;;;7.57;2.17;;;;;;;29.56;39.97;100915.81;10374921;28;20452;-70
2022/10/01 09:15:17;;;;;;;5.28;1.80;;;;;;;29.84;40.88;100927.19;10374089;28;20056;-69
2022/10/01 09:20:40;;;;;;;3.90;1.75;;;;;;;29.62;40.54;100916.63;10374452;28;20069;-70
2022/10/01 09:25:44;;;;;;;5.22;2.15;;;;;;;29.31;40.37;100903.03;10373896;28;20124;-70
2022/10/01 09:31:13;;;;;;;9.90;2.65;;;;;;;29.45;39.90;100897.78;10389966;28;20033;-70
2022/10/01 09:36:27;;;;;;;4.63;1.73;;;;;;;29.61;39.67;100888.38;10404011;28;20494;-70
2022/10/01 09:41:30;;;;;;;10.57;1.90;;;;;;;29.53;39.51;100839.72;10414097;28;20494;-70
2022/10/01 09:46:31;;;;;;;12.15;2.72;;;;;;;29.88;40.11;100889.91;10401117;28;20042;-70
2022/10/01 09:52:01;;;;;;;10.10;2.55;;;;;;;30.05;39.82;100871.16;10381575;28;20628;-70
2022/10/01 09:57:10;;;;;;;6.55;2.25;;;;;;;30.29;39.63;100852.09;10371591;28;20529;-70
2022/10/01 10:02:26;;;;;;;5.13;2.20;;;;;;;30.47;38.16;100865.06;10371604;28;20137;-70
2022/10/01 10:07:30;;;;;;;26.23;3.60;;;;;;;30.57;38.86;100852.38;10373422;28;20047;-70
2022/10/01 10:12:33;;;;;;;6.97;2.45;;;;;;;30.02;38.36;100789.56;10371895;28;20061;-70
2022/10/01 10:17:36;;;;;;;6.88;2.35;;;;;;;29.72;38.09;100711.22;10372776;28;20490;-70
2022/10/01 10:22:37;;;;;;;7.32;2.10;;;;;;;30.52;37.84;100820.34;10371888;28;20425;-70
2022/10/01 10:28:01;;;;;;;9.15;2.40;;;;;;;30.52;36.78;100814.06;10372436;28;20128;-70
2022/10/01 10:33:04;;;;;;;6.53;2.10;;;;;;;30.08;36.18;100749.25;10372734;28;20128;-70
2022/10/01 10:38:15;;;;;;;13.13;2.60;;;;;;;30.43;36.58;100792.75;10376084;28;20069;-69
2022/10/01 10:43:21;;;;;;;6.47;2.40;;;;;;;30.34;35.98;100778.06;10395429;28;20105;-71
2022/10/01 10:48:34;;;;;;;4.40;2.17;;;;;;;30.38;35.37;100764.59;10401615;28;20034;-71
2022/10/01 10:53:46;;;;;;;;;;;;;;;30.72;35.92;100794.63;10389983;28;20058;-70
2022/10/01 10:58:47;;;;;;;5.85;1.70;;;;;;;29.48;35.27;100662.66;10392076;28;19921;-71
2022/10/01 11:03:54;;;;;;;5.68;2.22;;;;;;;30.15;33.91;100764.22;10379399;28;20084;-71
2022/10/01 11:09:09;;;;;;;5.60;1.80;;;;;;;30.11;33.79;100751.41;10384286;28;20041;-71
2022/10/01 11:14:21;;;;;;;7.57;2.30;;;;;;;29.85;34.59;100712.47;10391314;28;20049;-69
2022/10/01 11:19:42;;;;;;;9.18;2.28;;;;;;;29.99;34.49;100722.47;10398927;28;20064;-70
2022/10/01 11:25:05;;;;;;;13.35;2.80;;;;;;;30.35;35.78;100782.41;10390750;28;20061;-70
2022/10/01 11:30:15;;;;;;;4.72;2.17;;;;;;;29.86;34.72;100711.38;10388304;28;20648;-70
2022/10/01 11:35:54;;;;;;;8.05;2.35;;;;;;;30.29;35.53;100775.34;10395440;28;20085;-70
2022/10/01 11:41:19;;;;;;;13.88;2.53;;;;;;;30.39;35.59;100777.97;10395647;28;20045;-70
2022/10/01 11:46:45;;;;;;;6.35;2.38;;;;;;;29.87;34.35;100718.47;10389055;28;20045;-70
2022/10/01 11:51:53;;;;;;;9.88;2.20;;;;;;;30.18;34.55;100762.81;10395430;28;20072;-70
2022/10/01 12:02:29;;;;;;;5.47;2.10;;;;;;;30.23;34.60;100749.91;10391036;28;20124;-70
2022/10/01 12:07:43;;;;;;;7.00;2.17;;;;;;;30.20;35.05;100755.13;10388493;28;20040;-70
2022/10/01 12:13:04;;;;;;;4.05;2.40;;;;;;;30.08;35.12;100757.44;10391945;28;20042;-69
2022/10/01 12:18:24;;;;;;;33.28;3.30;;;;;;;29.87;34.85;100746.69;10394356;28;20030;-69
2022/10/01 12:23:33;;;;;;;5.72;1.98;;;;;;;29.78;34.69;100731.97;10394890;28;20720;-70
2022/10/01 12:28:45;;;;;;;8.40;2.05;;;;;;;29.82;34.66;100722.06;10386176;28;20493;-70
2022/10/01 12:33:58;;;;;;;12.45;2.60;;;;;;;29.65;35.40;100692.38;10391914;28;20049;-69
2022/10/01 12:39:28;;;;;;;8.27;2.40;;;;;;;29.53;34.78;100681.78;10385776;28;20143;-70
2022/10/01 12:44:44;;;;;;;4.60;2.17;;;;;;;29.69;35.07;100729.03;10393098;28;20048;-70
2022/10/01 12:50:03;;;;;;;4.60;1.95;;;;;;;29.59;34.99;100701.72;10379690;28;20052;-70
2022/10/01 12:55:28;;;;;;;12.52;2.83;;;;;;;29.71;35.29;100715.88;10386156;28;20510;-72
2022/10/01 13:00:39;;;;;;;4.00;2.08;;;;;;;29.64;35.15;100715.38;10378415;28;20045;-70
2022/10/01 13:06:18;;;;;;;5.30;2.20;;;;;;;29.67;35.77;100716.72;10397491;28;20034;-70
2022/10/01 13:11:37;;;;;;;9.98;2.53;;;;;;;29.27;36.87;100677.59;10381712;28;20046;-69
2022/10/01 13:16:48;;;;;;;6.53;2.40;;;;;;;29.21;35.98;100673.28;10393966;28;20037;-70
2022/10/01 13:22:07;;;;;;;6.78;2.17;;;;;;;29.33;37.29;100706.56;10390298;28;20037;-71
2022/10/01 13:27:27;;;;;;;8.65;2.40;;;;;;;29.06;36.35;100680.47;10392194;28;20038;-71
2022/10/01 13:32:50;;;;;;;7.68;2.42;;;;;;;29.00;36.95;100688.97;10382615;28;20084;-70
2022/10/01 13:37:51;;;;;;;8.35;2.10;;;;;;;28.93;37.45;100692.03;10383216;28;20127;-70
2022/10/01 13:43:11;;;;;;;9.10;2.40;;;;;;;28.78;37.08;100681.13;10383595;28;20125;-70
2022/10/01 13:48:22;;;;;;;8.73;2.67;;;;;;;28.69;38.19;100708.28;10390574;28;20144;-70
2022/10/01 13:53:25;;;;;;;8.85;2.13;;;;;;;28.54;37.95;100698.22;10389748;28;20104;-71
2022/10/01 13:58:29;;;;;;;6.15;2.35;;;;;;;28.39;39.04;100696.34;10386497;28;20041;-70
2022/10/01 14:03:48;;;;;;;13.38;2.70;;;;;;;28.19;39.55;100688.19;10387014;28;20521;-70
2022/10/01 14:09:04;;;;;;;33.03;4.32;;;;;;;27.88;43.71;100703.78;10387884;28;20042;-70
2022/10/01 14:19:48;;;;;;;55.90;5.82;;;;;;;26.68;45.09;100602.19;10381045;28;20037;-70
2022/10/01 14:25:10;;;;;;;23.02;3.50;;;;;;;26.88;45.01;100696.00;10388378;28;20419;-70
2022/10/01 14:30:12;;;;;;;138.98;13.32;;;;;;;25.63;47.53;100564.91;10387436;28;20450;-69
2022/10/01 14:35:34;;;;;;;174.77;16.67;;;;;;;26.16;50.49;100704.63;10389093;28;20432;-70
2022/10/01 14:40:46;;;;;;;63.53;8.73;;;;;;;25.12;50.04;100610.72;10389235;28;20038;-69
2022/10/01 14:46:01;;;;;;;152.00;12.45;;;;;;;25.09;52.11;100626.75;10388296;28;20125;-70
2022/10/01 14:51:19;;;;;;;87.60;11.50;;;;;;;24.60;53.53;100616.72;10380949;28;20519;-70
2022/10/01 14:56:21;;;;;;;82.70;10.68;;;;;;;24.75;53.59;100692.97;10390698;28;20498;-70
2022/10/01 15:01:23;;;;;;;125.57;15.35;;;;;;;24.30;55.72;100683.13;10384264;28;20030;-73
2022/10/01 15:06:28;;;;;;;90.30;16.97;;;;;;;24.03;57.06;100677.59;10394778;28;20072;-69
2022/10/01 15:11:32;;;;;;;97.78;18.17;;;;;;;23.77;57.64;100691.84;10401715;28;20033;-69
2022/10/01 15:16:35;;;;;;;57.28;14.15;;;;;;;23.51;58.09;100701.41;10390613;28;20037;-70
2022/10/01 15:21:39;;;;;;;39.25;9.35;;;;;;;23.16;59.23;100688.88;10397194;28;20053;-69
2022/10/01 15:26:40;;;;;;;85.50;17.95;;;;;;;23.10;59.22;100685.25;10389796;28;20041;-70
2022/10/01 15:31:43;;;;;;;85.80;31.02;;;;;;;22.98;60.53;100696.13;10392682;28;20045;-70
2022/10/01 15:36:46;;;;;;;210.23;77.03;;;;;;;22.72;61.24;100702.06;10387267;28;20041;-70
2022/10/01 15:41:51;;;;;;;213.57;64.05;;;;;;;22.42;62.79;100677.88;10389925;28;20047;-70
2022/10/01 15:46:52;;;;;;;237.82;91.40;;;;;;;22.44;61.73;100698.25;10382205;28;20213;-70
2022/10/01 15:57:23;;;;;;;190.27;72.93;;;;;;;22.04;62.86;100692.72;10391500;28;20044;-70
2022/10/01 16:02:29;;;;;;;135.45;59.03;;;;;;;21.51;62.85;100629.56;10391698;28;20042;-71
2022/10/01 16:07:33;;;;;;;117.63;41.22;;;;;;;21.37;62.15;100638.94;10399420;28;20064;-70
2022/10/01 16:12:35;;;;;;;67.28;26.88;;;;;;;21.30;61.68;100633.59;10401810;28;20408;-70
2022/10/01 16:17:37;;;;;;;63.97;19.80;;;;;;;21.62;60.60;100690.09;10392102;28;20096;-70
2022/10/01 16:22:38;;;;;;;56.95;16.05;;;;;;;21.71;60.91;100712.19;10396138;28;20135;-72
2022/10/01 16:27:54;;;;;;;59.80;15.95;;;;;;;21.71;61.59;100714.91;10417019;28;20044;-74
2022/10/01 16:32:58;;;;;;;55.38;14.18;;;;;;;21.48;61.25;100694.03;10417335;28;20120;-74
2022/10/01 16:37:58;;;;;;;41.38;12.05;;;;;;;21.55;60.32;100706.41;10417616;28;20033;-71
2022/10/01 16:43:00;;;;;;;35.42;10.57;;;;;;;21.41;60.58;100697.66;10413006;28;20053;-71
2022/10/01 16:48:01;;;;;;;40.75;12.25;;;;;;;21.35;60.45;100703.16;10375623;28;20046;-71
2022/10/01 16:53:03;;;;;;;45.90;10.93;;;;;;;21.26;60.50;100708.06;10375700;28;20200;-71
2022/10/01 16:58:05;;;;;;;76.07;28.65;;;;;;;21.07;61.54;100699.19;10375033;28;20042;-72
2022/10/01 17:03:12;;;;;;;85.65;33.13;;;;;;;20.83;62.37;100684.75;10373603;28;20107;-72
2022/10/01 17:08:14;;;;;;;34.80;13.40;;;;;;;20.80;61.87;100682.50;10375176;28;20041;-71
2022/10/01 17:13:15;;;;;;;70.88;25.23;;;;;;;20.79;62.16;100688.97;10383070;28;20045;-71
2022/10/01 17:18:16;;;;;;;59.35;20.33;;;;;;;20.62;62.92;100679.81;10413937;28;20049;-70
2022/10/01 17:23:18;;;;;;;48.20;17.88;;;;;;;20.48;63.62;100690.72;10415487;28;20092;-71
2022/10/01 17:28:19;;;;;;;49.45;16.83;;;;;;;19.48;63.86;100534.53;10410587;28;20060;-72
2022/10/01 17:33:21;;;;;;;49.75;15.02;;;;;;;20.36;64.25;100681.72;10390485;28;20516;-71
2022/10/01 17:38:22;;;;;;;34.63;9.35;;;;;;;20.33;64.02;100678.66;10387872;28;20037;-71
2022/10/01 17:43:23;;;;;;;26.23;7.43;;;;;;;20.35;63.07;100679.28;10390338;28;20045;-71
2022/10/01 17:48:25;;;;;;;19.35;5.95;;;;;;;20.27;62.38;100680.38;10387549;28;20033;-71
2022/10/01 17:53:27;;;;;;;19.75;4.28;;;;;;;20.36;61.58;100679.03;10390397;28;20057;-71
2022/10/01 17:58:28;;;;;;;12.27;3.58;;;;;;;20.44;60.75;100667.13;10391312;28;20524;-72
2022/10/01 18:03:28;;;;;;;6.18;2.42;;;;;;;20.37;60.05;100652.88;10384252;28;20081;-72
2022/10/01 18:08:30;;;;;;;9.10;2.50;;;;;;;20.52;59.69;100666.84;10383536;28;20120;-70
2022/10/01 18:13:32;;;;;;;11.93;2.33;;;;;;;20.58;58.95;100662.41;10386048;28;20080;-70
2022/10/01 18:18:34;;;;;;;9.25;2.25;;;;;;;20.63;58.53;100659.88;10409638;28;20068;-71
2022/10/01 18:23:35;;;;;;;7.50;2.03;;;;;;;20.58;58.28;100644.38;10409756;28;20048;-71
2022/10/01 18:28:36;;;;;;;18.73;2.58;;;;;;;20.46;58.18;100624.53;10409039;28;20102;-71
2022/10/01 18:33:57;;;;;;;9.20;2.35;;;;;;;20.67;58.46;100661.91;10398216;28;20041;-71
2022/10/01 18:39:18;;;;;;;13.27;2.90;;;;;;;20.58;58.94;100648.91;10386169;28;20124;-71
2022/10/01 18:44:19;;;;;;;9.43;2.20;;;;;;;20.07;58.56;100578.09;10384287;28;20042;-71
2022/10/01 18:49:33;;;;;;;8.80;2.30;;;;;;;20.32;59.50;100625.75;10381239;28;20046;-70
2022/10/01 18:54:52;;;;;;;8.50;2.38;;;;;;;20.30;58.68;100628.69;10370440;28;20084;-70
2022/10/01 19:00:22;;;;;;;8.07;2.50;;;;;;;20.32;59.43;100644.66;10387273;28;20033;-72
2022/10/01 19:06:10;;;;;;;14.18;2.85;;;;;;;20.27;59.44;100640.75;10386353;28;20414;-72
2022/10/01 19:11:11;;;;;;;13.77;3.42;;;;;;;20.17;58.93;100635.06;10312543;28;20058;-72
2022/10/01 19:16:27;;;;;;;6.18;2.72;;;;;;;20.06;59.83;100631.22;10384815;28;20501;-72
2022/10/01 19:21:36;;;;;;;17.50;3.55;;;;;;;19.96;61.09;100632.78;10386351;28;20037;-70
2022/10/01 19:26:51;;;;;;;6.55;3.08;;;;;;;19.82;60.02;100618.59;10384999;28;20177;-70
2022/10/01 19:32:01;;;;;;;11.02;4.00;;;;;;;19.87;60.12;100637.63;10386032;28;20030;-71
2022/10/01 19:37:14;;;;;;;6.43;3.58;;;;;;;19.55;60.41;100581.09;10385545;28;20041;-70
2022/10/01 19:42:24;;;;;;;5.82;3.05;;;;;;;19.21;60.77;100549.28;10387093;28;20037;-70
2022/10/01 19:47:31;;;;;;;9.85;5.03;;;;;;;19.55;61.14;100626.06;10393610;28;20612;-70
2022/10/01 19:52:37;;;;;;;25.33;8.88;;;;;;;19.05;62.28;100559.53;10393074;28;20053;-70
2022/10/01 19:57:42;;;;;;;20.00;6.57;;;;;;;19.27;62.94;100608.47;10391502;28;20046;-70
2022/10/01 20:03:16;;;;;;;21.90;7.22;;;;;;;19.19;65.75;100614.13;10393782;28;20034;-70
2022/10/01 20:08:40;;;;;;;25.55;6.25;;;;;;;19.05;66.18;100616.06;10384077;28;20100;-70
2022/10/01 20:13:46;;;;;;;11.05;4.88;;;;;;;18.74;64.28;100573.81;10389240;28;20038;-70
2022/10/01 20:18:59;;;;;;;17.15;6.18;;;;;;;18.75;64.84;100613.13;10395830;28;20041;-69
2022/10/01 20:24:31;;;;;;;11.63;4.70;;;;;;;18.73;66.51;100606.31;10412319;28;20115;-69
2022/10/01 20:29:57;;;;;;;13.48;5.65;;;;;;;18.65;67.62;100600.13;10413601;28;20102;-70
2022/10/01 20:35:27;;;;;;;31.02;5.95;;;;;;;18.51;68.67;100590.47;10417541;28;20052;-69
2022/10/01 20:40:48;;;;;;;27.88;5.95;;;;;;;17.55;68.94;100443.38;10417178;28;20034;-70
2022/10/01 20:45:52;;;;;;;11.90;4.85;;;;;;;18.10;68.50;100564.78;10400566;28;20076;-70
2022/10/01 20:51:02;;;;;;;45.40;6.53;;;;;;;17.61;70.86;100490.06;10393486;28;20449;-71
2022/10/01 20:56:31;;;;;;;36.55;6.32;;;;;;;17.98;72.07;100567.31;10374859;28;20046;-71
2022/10/01 21:01:38;;;;;;;268.58;103.22;;;;;;;17.70;70.84;100551.41;10386637;28;20522;-70
2022/10/01 21:06:46;;;;;;;48.38;24.48;;;;;;;17.67;72.13;100575.19;10391620;28;20034;-69
2022/10/01 21:12:03;;;;;;;23.88;12.05;;;;;;;17.53;73.83;100580.59;10391874;28;20048;-69
2022/10/01 21:17:26;;;;;;;62.88;26.10;;;;;;;17.48;74.82;100564.25;10416163;28;20037;-71
2022/10/01 21:22:54;;;;;;;118.43;44.17;;;;;;;17.44;75.24;100564.88;10415111;28;20069;-69
2022/10/01 21:28:08;;;;;;;151.75;51.22;;;;;;;17.39;75.16;100565.50;10414948;28;20044;-69
2022/10/01 21:33:24;;;;;;;142.35;59.33;;;;;;;17.38;76.33;100557.63;10415167;28;20045;-69
2022/10/01 21:38:44;;;;;;;156.93;67.13;;;;;;;17.33;75.62;100559.09;10415493;28;20572;-69
2022/10/01 21:44:03;;;;;;;195.48;82.43;;;;;;;17.22;74.08;100556.19;10412947;28;20128;-69
2022/10/01 21:49:54;;;;;;;91.80;38.55;;;;;;;16.65;75.61;100470.66;10413494;28;20120;-69
2022/10/01 21:55:16;;;;;;;74.85;32.15;;;;;;;16.99;78.19;100540.50;10368772;28;20069;-69
2022/10/01 22:00:21;;;;;;;87.70;45.60;;;;;;;16.99;76.28;100549.38;10408367;28;20412;-69
2022/10/01 22:05:28;;;;;;;49.83;24.90;;;;;;;16.89;76.82;100535.53;10413910;28;20452;-69
2022/10/01 22:10:40;;;;;;;37.53;17.70;;;;;;;16.81;78.05;100523.16;10413374;28;20046;-69
2022/10/01 22:15:44;;;;;;;34.88;18.63;;;;;;;16.73;76.72;100520.63;10412376;28;20037;-69
2022/10/01 22:20:46;;;;;;;68.95;19.17;;;;;;;16.79;76.57;100522.53;10413010;28;20085;-69
2022/10/01 22:25:55;;;;;;;46.75;21.75;;;;;;;16.59;78.37;100502.84;10412983;28;20041;-69
2022/10/01 22:31:01;;;;;;;49.05;23.33;;;;;;;16.22;78.14;100442.56;10411659;28;20093;-69
2022/10/01 22:36:30;;;;;;;46.92;22.88;;;;;;;16.52;79.40;100500.16;10411597;28;20071;-70
2022/10/01 22:42:08;;;;;;;62.72;29.58;;;;;;;16.08;79.56;100439.00;10413132;28;20041;-70
2022/10/01 22:47:18;;;;;;;54.33;21.45;;;;;;;16.52;78.96;100512.75;10412458;28;20048;-69
2022/10/01 22:52:38;;;;;;;39.38;16.10;;;;;;;16.46;80.62;100518.94;10412492;28;20121;-70
2022/10/01 22:58:31;;;;;;;41.10;18.35;;;;;;;16.38;81.35;100510.03;10411881;28;20107;-70
2022/10/01 23:03:54;;;;;;;44.65;23.15;;;;;;;15.89;80.93;100433.38;10403024;28;20056;-69
2022/10/01 23:09:19;;;;;;;49.33;21.05;;;;;;;16.35;81.08;100497.03;10412728;28;20521;-70
2022/10/01 23:14:38;;;;;;;37.22;18.27;;;;;;;15.76;81.73;100414.56;10410723;28;20102;-69
2022/10/01 23:19:51;;;;;;;34.83;17.50;;;;;;;15.92;79.60;100448.25;10419755;28;20094;-70
2022/10/01 23:25:13;;;;;;;29.92;13.80;;;;;;;16.27;81.07;100486.47;10420811;28;20045;-69
2022/10/01 23:30:18;;;;;;;32.63;13.88;;;;;;;15.48;80.17;100380.66;10419414;28;20378;-70
2022/10/01 23:35:25;;;;;;;18.25;9.50;;;;;;;16.00;80.18;100472.16;10419168;28;20049;-70
2022/10/01 23:40:39;;;;;;;24.15;8.93;;;;;;;15.90;81.82;100440.38;10418825;28;20124;-70